createdAt,value
2023-03-02T00:02:30.456Z,100.00
2023-03-02T00:05:26.561Z,100.00
2023-03-02T00:08:00.461Z,100.00
2023-03-02T00:10:28.666Z,100.00
2023-03-02T00:12:58.315Z,100.00
2023-03-02T00:15:30.713Z,100.00
2023-03-02T00:17:58.977Z,100.00
2023-03-02T00:20:34.840Z,100.00
2023-03-02T00:23:03.179Z,100.00
2023-03-02T00:25:33.780Z,100.00
2023-03-02T00:28:04.689Z,100.00
2023-03-02T00:30:32.921Z,100.00
2023-03-02T00:33:01.602Z,100.00
2023-03-02T00:35:32.378Z,100.00
2023-03-02T00:38:03.511Z,100.00
2023-03-02T00:40:32.121Z,100.00
2023-03-02T00:43:07.079Z,100.00
2023-03-02T00:45:37.487Z,100.00
2023-03-02T00:48:05.849Z,100.00
2023-03-02T00:50:39.378Z,100.00
2023-03-02T00:53:18.575Z,100.00
2023-03-02T00:56:03.798Z,100.00
2023-03-02T00:58:32.966Z,100.00
2023-03-02T01:01:06.916Z,100.00
2023-03-02T01:03:39.601Z,100.00
2023-03-02T01:06:17.339Z,100.00
2023-03-02T01:08:50.132Z,100.00
2023-03-02T01:11:25.677Z,100.00
2023-03-02T01:14:03.427Z,100.00
2023-03-02T01:16:34.199Z,100.00
2023-03-02T01:19:06.004Z,100.00
2023-03-02T01:21:34.855Z,100.00
2023-03-02T01:24:07.074Z,100.00
2023-03-02T01:26:36.813Z,100.00
2023-03-02T01:29:05.920Z,100.00
2023-03-02T01:31:42.958Z,100.00
2023-03-02T01:34:13.364Z,100.00
2023-03-02T01:36:45.874Z,100.00
2023-03-02T01:39:18.774Z,100.00
2023-03-02T01:41:46.971Z,100.00
2023-03-02T01:44:37.643Z,100.00
2023-03-02T01:47:14.169Z,100.00
2023-03-02T01:50:11.972Z,100.00
2023-03-02T01:52:45.486Z,100.00
2023-03-02T01:55:15.262Z,100.00
2023-03-02T01:57:49.434Z,100.00
2023-03-02T02:00:29.109Z,100.00
2023-03-02T02:03:08.836Z,100.00
2023-03-02T02:05:45.876Z,100.00
2023-03-02T02:08:16.686Z,100.00
2023-03-02T02:10:51.785Z,100.00
2023-03-02T02:13:26.226Z,100.00
2023-03-02T02:16:05.994Z,100.00
2023-03-02T02:18:38.794Z,100.00
2023-03-02T02:21:08.102Z,100.00
2023-03-02T02:23:45.430Z,100.00
2023-03-02T02:26:25.000Z,100.00
2023-03-02T02:28:59.856Z,100.00
2023-03-02T02:31:41.761Z,100.00
2023-03-02T02:34:13.786Z,100.00
2023-03-02T02:36:45.931Z,100.00
2023-03-02T02:39:19.822Z,100.00
2023-03-02T02:41:48.767Z,100.00
2023-03-02T02:44:17.866Z,100.00
2023-03-02T02:46:46.340Z,100.00
2023-03-02T02:49:26.881Z,100.00
2023-03-02T02:51:55.237Z,100.00
2023-03-02T02:54:24.930Z,100.00
2023-03-02T02:57:02.822Z,100.00
2023-03-02T02:59:42.560Z,100.00
2023-03-02T03:02:31.001Z,100.00
2023-03-02T03:05:04.983Z,100.00
2023-03-02T03:07:42.352Z,100.00
2023-03-02T03:10:26.520Z,100.00
2023-03-02T03:12:55.783Z,100.00
2023-03-02T03:15:24.179Z,100.00
2023-03-02T03:17:56.342Z,100.00
2023-03-02T03:20:25.233Z,100.00
2023-03-02T03:22:54.169Z,100.00
2023-03-02T03:25:22.706Z,100.00
2023-03-02T03:27:51.654Z,100.00
2023-03-02T03:30:20.745Z,100.00
2023-03-02T03:32:49.886Z,100.00
2023-03-02T03:35:19.213Z,100.00
2023-03-02T03:37:48.823Z,100.00
2023-03-02T03:40:19.359Z,100.00
2023-03-02T03:42:48.271Z,100.00
2023-03-02T03:45:16.555Z,100.00
2023-03-02T03:47:46.012Z,100.00
2023-03-02T03:50:14.537Z,100.00
2023-03-02T03:52:44.420Z,100.00
2023-03-02T03:55:17.907Z,100.00
2023-03-02T03:57:47.634Z,100.00
2023-03-02T04:00:19.500Z,100.00
2023-03-02T04:02:50.786Z,100.00
2023-03-02T04:05:21.278Z,100.00
2023-03-02T04:07:54.936Z,100.00
2023-03-02T04:10:32.953Z,100.00
2023-03-02T04:13:06.829Z,100.00
2023-03-02T04:15:46.819Z,100.00
2023-03-02T04:18:15.517Z,100.00
2023-03-02T04:20:46.618Z,100.00
2023-03-02T04:23:24.697Z,100.00
2023-03-02T04:26:07.406Z,100.00
2023-03-02T04:28:36.372Z,100.00
2023-03-02T04:31:06.933Z,100.00
2023-03-02T04:33:47.917Z,100.00
2023-03-02T04:36:20.258Z,100.00
2023-03-02T04:38:49.298Z,100.00
2023-03-02T04:41:20.056Z,100.00
2023-03-02T04:43:52.678Z,100.00
2023-03-02T04:46:24.881Z,100.00
2023-03-02T04:48:53.256Z,100.00
2023-03-02T04:51:34.719Z,100.00
2023-03-02T04:54:06.714Z,100.00
2023-03-02T04:56:35.542Z,100.00
2023-03-02T04:59:04.650Z,100.00
2023-03-02T05:01:32.990Z,100.00
2023-03-02T05:04:03.081Z,100.00
2023-03-02T05:06:35.059Z,100.00
2023-03-02T05:09:05.044Z,100.00
2023-03-02T05:11:37.377Z,100.00
2023-03-02T05:14:07.403Z,100.00
2023-03-02T05:16:40.016Z,100.00
2023-03-02T05:19:09.947Z,100.00
2023-03-02T05:21:38.272Z,100.00
2023-03-02T05:24:06.853Z,100.00
2023-03-02T05:26:37.696Z,100.00
2023-03-02T05:29:07.289Z,100.00
2023-03-02T05:31:37.795Z,100.00
2023-03-02T05:34:14.287Z,100.00
2023-03-02T05:36:44.102Z,100.00
2023-03-02T05:39:13.972Z,100.00
2023-03-02T05:41:42.904Z,100.00
2023-03-02T05:44:12.696Z,100.00
2023-03-02T05:46:41.900Z,100.00
2023-03-02T05:49:11.088Z,100.00
2023-03-02T05:51:42.428Z,100.00
2023-03-02T05:54:10.752Z,100.00
2023-03-02T05:56:38.993Z,100.00
2023-03-02T05:59:11.003Z,100.00
2023-03-02T06:01:40.687Z,100.00
2023-03-02T06:04:10.126Z,100.00
2023-03-02T06:06:38.761Z,100.00
2023-03-02T06:09:07.462Z,100.00
2023-03-02T06:11:35.999Z,100.00
2023-03-02T06:14:06.547Z,100.00
2023-03-02T06:16:36.438Z,100.00
2023-03-02T06:19:05.157Z,100.00
2023-03-02T06:21:33.466Z,100.00
2023-03-02T06:24:01.542Z,100.00
2023-03-02T06:26:29.992Z,100.00
2023-03-02T06:28:58.867Z,100.00
2023-03-02T06:31:28.100Z,100.00
2023-03-02T06:33:56.270Z,100.00
2023-03-02T06:36:24.691Z,100.00
2023-03-02T06:38:57.919Z,100.00
2023-03-02T06:41:26.287Z,100.00
2023-03-02T06:43:54.756Z,100.00
2023-03-02T06:46:24.116Z,100.00
2023-03-02T06:48:56.059Z,100.00
2023-03-02T06:51:24.294Z,100.00
2023-03-02T06:53:52.804Z,100.00
2023-03-02T06:56:26.130Z,100.00
2023-03-02T06:58:57.929Z,100.00
2023-03-02T07:01:26.246Z,100.00
2023-03-02T07:03:54.688Z,100.00
2023-03-02T07:06:23.300Z,100.00
2023-03-02T07:08:51.836Z,100.00
2023-03-02T07:11:20.471Z,100.00
2023-03-02T07:13:48.982Z,100.00
2023-03-02T07:16:20.474Z,100.00
2023-03-02T07:18:59.116Z,100.00
2023-03-02T07:21:35.531Z,100.00
2023-03-02T07:24:04.028Z,100.00
2023-03-02T07:26:35.941Z,100.00
2023-03-02T07:29:04.648Z,100.00
2023-03-02T07:31:43.279Z,100.00
2023-03-02T07:34:15.108Z,100.00
2023-03-02T07:36:43.890Z,100.00
2023-03-02T07:39:16.490Z,100.00
2023-03-02T07:41:46.949Z,100.00
2023-03-02T07:44:15.541Z,100.00
2023-03-02T07:46:44.153Z,100.00
2023-03-02T07:49:13.089Z,100.00
2023-03-02T07:51:41.864Z,100.00
2023-03-02T07:54:10.235Z,100.00
2023-03-02T07:56:38.756Z,100.00
2023-03-02T07:59:07.392Z,100.00
2023-03-02T08:01:38.583Z,100.00
2023-03-02T08:04:08.407Z,100.00
2023-03-02T08:06:42.440Z,100.00
2023-03-02T08:09:11.698Z,100.00
2023-03-02T08:11:47.867Z,100.00
2023-03-02T08:14:20.193Z,100.00
2023-03-02T08:16:48.871Z,100.00
2023-03-02T08:19:19.928Z,100.00
2023-03-02T08:21:48.140Z,100.00
2023-03-02T08:24:22.985Z,100.00
2023-03-02T08:26:51.984Z,100.00
2023-03-02T08:29:20.079Z,100.00
2023-03-02T08:31:48.839Z,100.00
2023-03-02T08:34:16.916Z,100.00
2023-03-02T08:36:45.214Z,100.00
2023-03-02T08:39:13.466Z,100.00
2023-03-02T08:41:41.885Z,100.00
2023-03-02T08:44:10.255Z,100.00
2023-03-02T08:46:38.812Z,100.00
2023-03-02T08:49:07.640Z,100.00
2023-03-02T08:51:36.049Z,100.00
2023-03-02T08:54:07.289Z,100.00
2023-03-02T08:56:37.759Z,100.00
2023-03-02T08:59:12.691Z,100.00
2023-03-02T09:01:49.335Z,100.00
2023-03-02T09:04:21.500Z,99.91
2023-03-02T09:06:51.210Z,87.38
2023-03-02T09:09:19.414Z,79.32
2023-03-02T09:11:49.324Z,78.71
2023-03-02T09:14:19.483Z,79.67
2023-03-02T09:16:48.078Z,75.39
2023-03-02T09:19:16.301Z,72.54
2023-03-02T09:21:44.411Z,71.46
2023-03-02T09:24:16.345Z,67.94
2023-03-02T09:26:45.175Z,68.97
2023-03-02T09:29:13.750Z,68.22
2023-03-02T09:31:42.806Z,65.30
2023-03-02T09:34:12.076Z,64.31
2023-03-02T09:36:42.292Z,63.40
2023-03-02T09:39:12.691Z,63.04
2023-03-02T09:42:03.063Z,61.88
2023-03-02T09:44:35.286Z,60.10
2023-03-02T09:47:05.092Z,58.26
2023-03-02T09:49:39.999Z,54.69
2023-03-02T09:52:30.847Z,52.36
2023-03-02T09:55:29.139Z,50.68
2023-03-02T09:58:02.684Z,52.90
2023-03-02T10:00:37.196Z,52.03
2023-03-02T10:03:16.681Z,50.12
2023-03-02T10:05:47.007Z,50.20
2023-03-02T10:08:21.510Z,50.91
2023-03-02T10:11:00.113Z,49.36
2023-03-02T10:13:32.858Z,49.39
2023-03-02T10:16:16.530Z,47.64
2023-03-02T10:19:25.244Z,49.30
2023-03-02T10:22:03.606Z,49.57
2023-03-02T10:24:40.874Z,49.37
2023-03-02T10:27:35.109Z,49.03
2023-03-02T10:30:35.572Z,47.55
2023-03-02T10:33:12.495Z,46.17
2023-03-02T10:35:52.006Z,44.76
2023-03-02T10:38:22.937Z,44.84
2023-03-02T10:41:02.146Z,44.29
2023-03-02T10:43:42.822Z,43.98
2023-03-02T10:46:12.165Z,45.15
2023-03-02T10:48:53.291Z,45.96
2023-03-02T10:51:27.107Z,46.60
2023-03-02T10:54:14.291Z,46.24
2023-03-02T10:56:52.890Z,45.20
2023-03-02T10:59:43.421Z,44.85
2023-03-02T11:02:16.288Z,44.05
2023-03-02T11:04:44.841Z,44.52
2023-03-02T11:07:20.074Z,45.62
2023-03-02T11:10:18.297Z,45.67
2023-03-02T11:12:50.274Z,46.20
2023-03-02T11:15:32.628Z,45.75
2023-03-02T11:18:23.512Z,45.29
2023-03-02T11:20:58.022Z,45.58
2023-03-02T11:24:04.007Z,46.59
2023-03-02T11:26:36.262Z,46.28
2023-03-02T11:29:12.461Z,47.68
2023-03-02T11:31:48.992Z,47.96
2023-03-02T11:34:56.895Z,48.26
2023-03-02T11:37:43.765Z,48.01
2023-03-02T11:40:20.987Z,49.35
2023-03-02T11:42:49.236Z,49.04
2023-03-02T11:45:21.913Z,48.79
2023-03-02T11:48:08.177Z,48.62
2023-03-02T11:51:00.896Z,47.55
2023-03-02T11:53:44.133Z,46.92
2023-03-02T11:56:12.491Z,45.05
2023-03-02T11:58:43.422Z,42.79
2023-03-02T12:01:17.834Z,42.90
2023-03-02T12:03:46.272Z,43.82
2023-03-02T12:06:25.172Z,44.25
2023-03-02T12:08:55.730Z,45.62
2023-03-02T12:11:23.912Z,46.71
2023-03-02T12:13:52.060Z,47.21
2023-03-02T12:16:37.362Z,47.61
2023-03-02T12:19:24.924Z,48.14
2023-03-02T12:22:00.795Z,48.17
2023-03-02T12:24:36.037Z,48.42
2023-03-02T12:27:25.857Z,49.98
2023-03-02T12:30:12.184Z,49.75
2023-03-02T12:32:40.508Z,49.84
2023-03-02T12:35:15.793Z,49.78
2023-03-02T12:38:05.984Z,49.49
2023-03-02T12:40:45.689Z,49.86
2023-03-02T12:43:32.370Z,50.57
2023-03-02T12:46:19.660Z,51.79
2023-03-02T12:49:20.620Z,52.24
2023-03-02T12:52:01.173Z,52.50
2023-03-02T12:54:30.580Z,52.66
2023-03-02T12:57:18.345Z,51.79
2023-03-02T12:59:53.897Z,51.38
2023-03-02T13:02:29.892Z,51.15
2023-03-02T13:04:59.822Z,50.75
2023-03-02T13:07:35.481Z,49.21
2023-03-02T13:10:08.974Z,48.10
2023-03-02T13:12:37.979Z,48.51
2023-03-02T13:15:14.002Z,48.35
2023-03-02T13:17:42.335Z,48.49
2023-03-02T13:20:13.119Z,48.53
2023-03-02T13:22:43.359Z,48.32
2023-03-02T13:25:24.003Z,47.51
2023-03-02T13:27:58.017Z,46.72
2023-03-02T13:31:03.160Z,46.19
2023-03-02T13:33:32.514Z,45.64
2023-03-02T13:36:00.900Z,44.59
2023-03-02T13:38:38.600Z,43.89
2023-03-02T13:41:08.873Z,43.27
2023-03-02T13:43:44.428Z,43.17
2023-03-02T13:46:16.894Z,43.83
2023-03-02T13:49:14.479Z,44.47
2023-03-02T13:51:45.518Z,44.69
2023-03-02T13:54:22.300Z,44.53
2023-03-02T13:56:51.347Z,44.35
2023-03-02T13:59:22.054Z,44.94
2023-03-02T14:01:50.796Z,44.50
2023-03-02T14:04:23.207Z,43.13
2023-03-02T14:06:53.688Z,42.72
2023-03-02T14:09:22.107Z,42.82
2023-03-02T14:11:53.839Z,41.43
2023-03-02T14:14:23.848Z,41.16
2023-03-02T14:16:52.119Z,42.15
2023-03-02T14:19:20.710Z,43.45
2023-03-02T14:21:48.917Z,43.60
2023-03-02T14:24:21.976Z,44.65
2023-03-02T14:26:50.311Z,44.55
2023-03-02T14:29:25.011Z,44.31
2023-03-02T14:32:00.423Z,44.24
2023-03-02T14:34:29.534Z,43.86
2023-03-02T14:36:59.371Z,44.06
2023-03-02T14:39:39.284Z,44.89
2023-03-02T14:42:15.682Z,44.02
2023-03-02T14:44:53.377Z,42.29
2023-03-02T14:47:22.085Z,41.95
2023-03-02T14:49:50.860Z,41.66
2023-03-02T14:52:28.425Z,41.80
2023-03-02T14:58:18.390Z,43.70
2023-03-02T15:00:46.799Z,44.37
2023-03-02T15:03:19.463Z,44.55
2023-03-02T15:06:00.358Z,45.10
2023-03-02T15:08:31.935Z,46.18
2023-03-02T15:11:00.721Z,47.48
2023-03-02T15:13:34.583Z,49.22
2023-03-02T15:16:03.642Z,50.98
2023-03-02T15:18:32.202Z,52.82
2023-03-02T15:21:01.637Z,54.60
2023-03-02T15:23:30.290Z,57.75
2023-03-02T15:26:04.847Z,61.70
2023-03-02T15:28:32.925Z,64.93
2023-03-02T15:31:13.411Z,68.43
2023-03-02T15:33:41.806Z,72.86
2023-03-02T15:36:10.224Z,78.08
2023-03-02T15:38:39.318Z,85.50
2023-03-02T15:41:12.447Z,89.24
2023-03-02T15:43:45.459Z,96.43
2023-03-02T15:46:13.624Z,99.18
2023-03-02T15:48:47.039Z,100.00
2023-03-02T15:51:15.757Z,100.00
2023-03-02T15:53:44.331Z,100.00
2023-03-02T15:56:15.079Z,100.00
2023-03-02T15:58:47.624Z,100.00
2023-03-02T16:01:16.355Z,100.00
2023-03-02T16:03:49.647Z,100.00
2023-03-02T16:06:17.839Z,100.00
2023-03-02T16:08:46.023Z,100.00
2023-03-02T16:11:18.777Z,100.00
2023-03-02T16:13:47.149Z,100.00
2023-03-02T16:16:15.541Z,100.00
2023-03-02T16:18:58.368Z,100.00
2023-03-02T16:21:28.560Z,100.00
2023-03-02T16:24:04.048Z,100.00
2023-03-02T16:26:34.688Z,100.00
2023-03-02T16:29:03.569Z,100.00
2023-03-02T16:31:37.795Z,100.00
2023-03-02T16:34:09.684Z,100.00
2023-03-02T16:36:39.237Z,100.00
2023-03-02T16:39:08.184Z,100.00
2023-03-02T16:41:36.886Z,100.00
2023-03-02T16:44:05.419Z,100.00
2023-03-02T16:46:37.516Z,100.00
2023-03-02T16:49:25.388Z,100.00
2023-03-02T16:51:57.841Z,100.00
2023-03-02T16:54:26.075Z,100.00
2023-03-02T16:56:54.867Z,100.00
2023-03-02T16:59:25.830Z,100.00
2023-03-02T17:01:54.514Z,100.00
2023-03-02T17:04:22.726Z,100.00
2023-03-02T17:07:00.560Z,100.00
2023-03-02T17:09:29.615Z,100.00
2023-03-02T17:11:57.802Z,100.00
2023-03-02T17:14:26.507Z,100.00
2023-03-02T17:16:57.230Z,100.00
2023-03-02T17:19:27.080Z,100.00
2023-03-02T17:21:59.345Z,100.00
2023-03-02T17:24:35.932Z,100.00
2023-03-02T17:27:13.115Z,100.00
2023-03-02T17:29:49.040Z,100.00
2023-03-02T17:32:17.699Z,100.00
2023-03-02T17:34:47.850Z,100.00
2023-03-02T17:37:17.684Z,100.00
2023-03-02T17:39:46.243Z,100.00
2023-03-02T17:42:14.288Z,100.00
2023-03-02T17:44:43.933Z,100.00
2023-03-02T17:47:14.660Z,100.00
2023-03-02T17:49:45.809Z,100.00
2023-03-02T17:52:18.982Z,100.00
2023-03-02T17:54:47.555Z,100.00
2023-03-02T17:57:21.883Z,100.00
2023-03-02T17:59:50.657Z,100.00
2023-03-02T18:02:18.938Z,100.00
2023-03-02T18:04:47.428Z,100.00
2023-03-02T18:07:15.874Z,100.00
2023-03-02T18:09:45.122Z,100.00
2023-03-02T18:12:13.438Z,100.00
2023-03-02T18:14:41.579Z,100.00
2023-03-02T18:17:12.496Z,100.00
2023-03-02T18:19:42.469Z,100.00
2023-03-02T18:22:10.517Z,100.00
2023-03-02T18:24:38.724Z,100.00
2023-03-02T18:27:12.814Z,100.00
2023-03-02T18:29:41.107Z,100.00
2023-03-02T18:32:10.620Z,100.00
2023-03-02T18:34:40.681Z,100.00
2023-03-02T18:37:09.466Z,100.00
2023-03-02T18:39:40.459Z,100.00
2023-03-02T18:42:09.265Z,100.00
2023-03-02T18:44:38.867Z,100.00
2023-03-02T18:47:08.796Z,100.00
2023-03-02T18:49:40.633Z,100.00
2023-03-02T18:52:09.897Z,100.00
2023-03-02T18:54:38.989Z,100.00
2023-03-02T18:57:09.051Z,100.00
2023-03-02T18:59:38.412Z,100.00
2023-03-02T19:02:08.334Z,100.00
2023-03-02T19:04:50.347Z,100.00
2023-03-02T19:07:22.658Z,100.00
2023-03-02T19:09:50.687Z,100.00
2023-03-02T19:12:22.125Z,100.00
2023-03-02T19:14:50.758Z,100.00
2023-03-02T19:17:19.080Z,100.00
2023-03-02T19:19:50.934Z,100.00
2023-03-02T19:22:22.595Z,100.00
2023-03-02T19:24:50.940Z,100.00
2023-03-02T19:27:19.158Z,100.00
2023-03-02T19:29:48.716Z,100.00
2023-03-02T19:32:16.839Z,100.00
2023-03-02T19:34:45.565Z,100.00
2023-03-02T19:37:13.923Z,100.00
2023-03-02T19:39:44.494Z,100.00
2023-03-02T19:42:12.644Z,100.00
2023-03-02T19:44:41.932Z,100.00
2023-03-02T19:47:09.948Z,100.00
2023-03-02T19:49:38.012Z,100.00
2023-03-02T19:52:11.663Z,100.00
2023-03-02T19:54:45.918Z,100.00
2023-03-02T19:57:14.039Z,100.00
2023-03-02T19:59:45.476Z,100.00
2023-03-02T20:02:15.427Z,100.00
2023-03-02T20:04:45.356Z,100.00
2023-03-02T20:07:13.949Z,100.00
2023-03-02T20:09:46.309Z,100.00
2023-03-02T20:12:15.918Z,100.00
2023-03-02T20:14:52.736Z,100.00
2023-03-02T20:17:23.383Z,100.00
2023-03-02T20:19:54.339Z,100.00
2023-03-02T20:22:25.966Z,100.00
2023-03-02T20:24:57.059Z,100.00
2023-03-02T20:27:27.929Z,100.00
2023-03-02T20:29:56.097Z,100.00
2023-03-02T20:32:25.558Z,100.00
2023-03-02T20:34:53.681Z,100.00
2023-03-02T20:37:24.560Z,100.00
2023-03-02T20:39:54.446Z,100.00
2023-03-02T20:42:27.523Z,100.00
2023-03-02T20:44:56.659Z,100.00
2023-03-02T20:47:24.824Z,100.00
2023-03-02T20:50:00.055Z,100.00
2023-03-02T20:52:31.278Z,100.00
2023-03-02T20:54:59.458Z,100.00
2023-03-02T20:57:28.215Z,100.00
2023-03-02T20:59:57.481Z,100.00
2023-03-02T21:02:26.677Z,100.00
2023-03-02T21:04:55.407Z,100.00
2023-03-02T21:07:24.109Z,100.00
2023-03-02T21:09:52.386Z,100.00
2023-03-02T21:12:24.233Z,100.00
2023-03-02T21:14:54.255Z,100.00
2023-03-02T21:17:24.457Z,100.00
2023-03-02T21:19:53.289Z,100.00
2023-03-02T21:22:21.644Z,100.00
2023-03-02T21:24:53.045Z,100.00
2023-03-02T21:27:21.708Z,100.00
2023-03-02T21:29:49.839Z,100.00
2023-03-02T21:32:17.962Z,100.00
2023-03-02T21:34:46.443Z,100.00
2023-03-02T21:37:14.562Z,100.00
2023-03-02T21:39:42.888Z,100.00
2023-03-02T21:42:14.074Z,100.00
2023-03-02T21:44:43.826Z,100.00
2023-03-02T21:47:11.885Z,100.00
2023-03-02T21:49:41.126Z,100.00
2023-03-02T21:52:09.591Z,100.00
2023-03-02T21:54:38.514Z,100.00
2023-03-02T21:57:08.440Z,100.00
2023-03-02T21:59:37.435Z,100.00
2023-03-02T22:02:05.712Z,100.00
2023-03-02T22:04:37.542Z,100.00
2023-03-02T22:07:05.911Z,100.00
2023-03-02T22:09:34.079Z,100.00
2023-03-02T22:12:12.013Z,100.00
2023-03-02T22:14:40.498Z,100.00
2023-03-02T22:17:16.783Z,100.00
2023-03-02T22:19:45.578Z,100.00
2023-03-02T22:22:22.413Z,100.00
2023-03-02T22:24:53.740Z,100.00
2023-03-02T22:27:24.348Z,100.00
2023-03-02T22:29:56.692Z,100.00
2023-03-02T22:32:35.580Z,100.00
2023-03-02T22:35:26.284Z,100.00
2023-03-02T22:38:07.434Z,100.00
2023-03-02T22:40:35.801Z,100.00
2023-03-02T22:43:22.990Z,100.00
2023-03-02T22:45:54.153Z,100.00
2023-03-02T22:48:23.244Z,100.00
2023-03-02T22:50:51.567Z,100.00
2023-03-02T22:53:24.462Z,100.00
2023-03-02T22:56:00.344Z,100.00
2023-03-02T22:58:48.509Z,100.00
2023-03-02T23:01:27.899Z,100.00
2023-03-02T23:04:01.978Z,100.00
2023-03-02T23:06:31.841Z,100.00
2023-03-02T23:09:04.179Z,100.00
2023-03-02T23:11:38.903Z,100.00
2023-03-02T23:14:26.083Z,100.00
2023-03-02T23:17:02.568Z,100.00
2023-03-02T23:19:31.051Z,100.00
2023-03-02T23:21:59.394Z,100.00
2023-03-02T23:24:28.077Z,100.00
2023-03-02T23:26:57.533Z,100.00
2023-03-02T23:29:45.469Z,100.00
2023-03-02T23:32:13.943Z,100.00
2023-03-02T23:34:42.289Z,100.00
2023-03-02T23:37:13.078Z,100.00
2023-03-02T23:39:41.469Z,100.00
2023-03-02T23:42:09.659Z,100.00
2023-03-02T23:44:40.760Z,100.00
2023-03-02T23:47:12.237Z,100.00
2023-03-02T23:49:44.345Z,100.00
2023-03-02T23:52:12.541Z,100.00
2023-03-02T23:54:42.191Z,100.00
2023-03-02T23:57:10.558Z,100.00
2023-03-02T23:59:38.922Z,100.00
